Visit the IPS Meteostar Home Page IPSM Adams Field FORECAST

North Little Rock, Arkansas

81

85

88

85

95

95

95

92

68
68
68
68
68
72
72

4 miles away at Adams Field 19:53 GMT

Weather:

Mostly Cloudy

Wind:

NW 12 mph

Temperature:

81 ° F

Pressure:

30.08

Dew Point:

68 ° F

Relative Humidity:

64

Feels Like:

84 ° F

Visibility:

10 miles


Aviation Observations:

KLIT 211953Z 31010KT 10SM FEW040 BKN050 27/20 A3005 RMK AO2 SLP177 T02720200 =

National Weather Service Forecast:
Pulaski
101 PM CDT TUE AUG 21 2018

THIS AFTERNOON

Mostly sunny. Highs in the mid 80s. Northwest winds 5 to 10 mph.

TONIGHT

Mostly clear. Lows in the upper 60s. North winds 5 to 10 mph in the evening...becoming northwest after midnight.

WEDNESDAY

Partly sunny. Highs in the upper 80s. North winds 5 mph.

WEDNESDAY NIGHT

Mostly cloudy. Lows in the upper 60s. northeast winds 5 mph.

THURSDAY

Mostly cloudy. A slight chance of showers and thunderstorms. Highs in the mid 80s. East winds 5 mph. The chance of precipitation 20 percent.

THURSDAY NIGHT

Mostly cloudy in the evening...becoming partly cloudy. Lows in the upper 60s.

FRIDAY THROUGH SATURDAY

Partly cloudy. Highs in the mid 90s. lows 68 to 73.

SATURDAY NIGHT THROUGH SUNDAY NIGHT

Mostly clear. Lows in the lower 70s. Highs in the mid 90s.

MONDAY

Mostly sunny. Highs in the lower 90s.


Visit the IPS Meteostar Home Page